x

Cape Lookout, Nc (clkn7) Weather Station

10:00am - Tue 26th Jul 2016 All times are EDT. -4 hours from GMT.

  • Wind
    21mph, 25mph gusts
  • Air Temp 83°f
  • Sea Pressure 1016.7mb
  • Cape Lookout, Nc
  • Cape Lookout, Nc

More Historic Weather Station data

Upgrade to MSW Pro to gain access to the past 30 days of data for over 8000 Wavebouys and Weather Stations around the globe.

Join Pro

Comparision Forecast

View Surf forecast
   
Tue 07/26 10:00am 21 25 mph 1016.7mb 83f
9:00am 18 24 mph 1017mb 83f
8:00am 16 22 mph 1017mb 83f
7:00am 16 20 mph 1016.6mb 82f
6:00am 16 20 mph 1016.4mb 82f
5:00am 17 21 mph 1016.3mb 82f
4:00am 16 20 mph 1016.2mb 83f
3:00am 14 17 mph 1015.9mb 83f
2:00am 11 15 mph 1016.4mb 83f
1:00am 13 18 mph 1017mb 83f
12:00am 13 17 mph 1017.3mb 83f
Mon 07/25 11:00pm 11 14 mph 1016.9mb 83f
10:00pm 14 16 mph 1016.9mb 84f
9:00pm 14 18 mph 1016.4mb 84f
8:00pm 11 17 mph 1016.1mb 84f
7:00pm 11 17 mph 1015.8mb 85f
6:00pm 17 21 mph 1015.6mb 85f
5:00pm 15 21 mph 1016.1mb 86f
4:00pm 13 17 mph 1016.4mb 87f
3:00pm 14 17 mph 1016.9mb 87f
2:00pm 11 15 mph 1017.6mb 87f
1:00pm 11 15 mph 1018.2mb 87f
12:00pm 10 13 mph 1018.6mb 86f
11:00am 13 14 mph 1018.4mb 85f
10:00am 13 15 mph 1018mb 85f
9:00am 11 14 mph 1018.4mb 84f
8:00am 10 14 mph 1018.3mb 85f
7:00am 10 13 mph 1018.3mb 83f
6:00am 9 11 mph 1017.8mb 82f
5:00am 9 11 mph 1017.3mb 83f
4:00am 8 10 mph 1017.2mb 83f
3:00am 10 14 mph 1017.2mb 83f
2:00am 10 15 mph 1017.5mb 83f
1:00am 9 11 mph 1017.6mb 83f
12:00am 8 11 mph 1017.8mb 83f
Sun 07/24 11:00pm 10 11 mph 1017.6mb 83f
10:00pm 10 13 mph 1017.5mb 83f
9:00pm 11 15 mph 1016.9mb 84f
8:00pm 10 14 mph 1016.4mb 84f
7:00pm 10 14 mph 1016.4mb 85f
6:00pm 10 14 mph 1016.1mb 86f
5:00pm 14 16 mph 1016mb 86f
4:00pm 13 16 mph 1016.6mb 87f
3:00pm 11 15 mph 1016.8mb 87f
2:00pm 9 13 mph 1017.2mb 87f
1:00pm 10 13 mph 1017.2mb 88f
12:00pm 13 15 mph 1017.1mb 87f
11:00am 9 13 mph 1017.1mb 86f
10:00am 9 11 mph 1016.8mb 85f
9:00am 6 8 mph 1016.8mb 85f
8:00am 7 8 mph 1016.5mb 84f
7:00am 6 8 mph 1016.3mb 83f
6:00am 8 9 mph 1016mb 82f
5:00am 8 10 mph 1015.8mb 83f
4:00am 8 11 mph 1016.1mb 83f
3:00am 7 9 mph 1016.4mb 82f
2:00am 9 11 mph 1016.2mb 83f
1:00am 9 11 mph 1016.1mb 83f
12:00am 10 14 mph 1016.1mb 83f
Sat 07/23 11:00pm 7 9 mph 1016.3mb 83f
10:00pm 9 10 mph 1015.9mb 83f
9:00pm 9 13 mph 1015.4mb 83f
8:00pm 9 13 mph 1014.8mb 83f
7:00pm 11 15 mph 1014.7mb 84f
6:00pm 13 14 mph 1014.9mb 85f
5:00pm 11 14 mph 1015mb 85f
4:00pm 9 13 mph 1015.3mb 86f
3:00pm 10 14 mph 1015.6mb 86f
2:00pm 8 11 mph 1016.2mb 85f
1:00pm 9 11 mph 1016.2mb 86f
12:00pm 11 15 mph 1016.6mb 86f
11:00am 8 11 mph 1016.7mb 85f
10:00am 10 13 mph 1016.3mb 85f
9:00am 9 10 mph 1016.2mb 84f
8:00am 7 9 mph 1016.1mb 84f
7:00am 7 8 mph 1016mb 82f
6:00am 5 6 mph 1015.9mb 82f
5:00am 6 8 mph 1015.8mb 82f
4:00am 6 9 mph 1016mb 82f
3:00am 7 8 mph 1016.1mb 82f
2:00am 7 9 mph 1016.4mb 82f
1:00am 8 10 mph 1016.5mb 82f
12:00am 8 9 mph 1016.6mb 82f
Fri 07/22 11:00pm 9 13 mph 1016.6mb 82f
10:00pm 13 15 mph 1016.5mb 82f
9:00pm 8 10 mph 1016.3mb 82f
8:00pm 6 7 mph 1016.2mb 82f
7:00pm 9 10 mph 1016.2mb 84f
6:00pm 9 14 mph 1016.3mb 84f
5:00pm 10 11 mph 1017.2mb 84f
4:00pm 9 10 mph 1017.7mb 84f